createdAt,value
2023-12-23T00:02:39.163Z,1.40
2023-12-23T00:05:42.177Z,1.40
2023-12-23T00:08:44.460Z,1.73
2023-12-23T00:11:46.981Z,1.60
2023-12-23T00:14:49.574Z,1.35
2023-12-23T00:17:52.268Z,1.83
2023-12-23T00:20:55.198Z,1.57
2023-12-23T00:23:57.828Z,1.97
2023-12-23T00:27:00.280Z,2.50
2023-12-23T00:30:02.835Z,2.00
2023-12-23T00:33:06.841Z,1.90
2023-12-23T00:36:09.681Z,1.92
2023-12-23T00:39:12.165Z,1.80
2023-12-23T00:42:15.074Z,1.63
2023-12-23T00:45:17.847Z,1.23
2023-12-23T00:48:20.304Z,1.73
2023-12-23T00:51:23.454Z,1.55
2023-12-23T00:54:25.755Z,0.93
2023-12-23T00:57:28.267Z,1.55
2023-12-23T01:00:30.979Z,2.05
2023-12-23T01:03:33.771Z,2.17
2023-12-23T01:06:36.187Z,1.92
2023-12-23T01:09:38.533Z,1.90
2023-12-23T01:12:41.220Z,2.58
2023-12-23T01:15:43.618Z,2.22
2023-12-23T01:18:46.047Z,2.60
2023-12-23T01:21:48.661Z,2.13
2023-12-23T01:24:51.251Z,2.03
2023-12-23T01:27:54.250Z,2.13
2023-12-23T01:30:57.028Z,1.90
2023-12-23T01:33:59.743Z,2.00
2023-12-23T01:37:02.204Z,1.58
2023-12-23T01:40:05.952Z,1.55
2023-12-23T01:43:08.597Z,1.52
2023-12-23T01:46:13.277Z,1.45
2023-12-23T01:49:15.846Z,1.30
2023-12-23T01:52:18.362Z,1.45
2023-12-23T01:55:21.591Z,1.80
2023-12-23T01:58:24.169Z,1.40
2023-12-23T02:01:26.641Z,1.65
2023-12-23T02:04:29.072Z,1.90
2023-12-23T02:07:31.677Z,1.90
2023-12-23T02:10:35.017Z,1.80
2023-12-23T02:13:50.097Z,1.70
2023-12-23T02:16:54.531Z,1.67
2023-12-23T02:19:58.362Z,1.38
2023-12-23T02:23:01.061Z,1.15
2023-12-23T02:26:03.876Z,1.33
2023-12-23T02:29:07.772Z,1.40
2023-12-23T02:32:11.193Z,1.52
2023-12-23T02:35:14.490Z,1.65
2023-12-23T02:38:16.953Z,1.20
2023-12-23T02:41:19.487Z,1.38
2023-12-23T02:44:23.371Z,1.23
2023-12-23T02:47:25.852Z,1.23
2023-12-23T02:50:28.481Z,1.42
2023-12-23T02:53:30.950Z,1.67
2023-12-23T02:56:33.524Z,1.52
2023-12-23T02:59:36.102Z,1.20
2023-12-23T03:02:38.617Z,1.73
2023-12-23T03:05:41.412Z,1.30
2023-12-23T03:08:45.194Z,1.67
2023-12-23T03:11:48.981Z,1.40
2023-12-23T03:17:54.121Z,1.50
2023-12-23T03:20:56.759Z,1.63
2023-12-23T03:23:59.657Z,1.00
2023-12-23T03:27:02.429Z,1.40
2023-12-23T03:30:05.458Z,1.33
2023-12-23T03:33:08.199Z,1.02
2023-12-23T03:36:10.810Z,0.95
2023-12-23T03:39:13.145Z,1.38
2023-12-23T03:42:15.706Z,1.17
2023-12-23T03:45:18.478Z,0.98
2023-12-23T03:48:20.939Z,1.02
2023-12-23T03:51:24.708Z,1.50
2023-12-23T03:57:29.423Z,1.60
2023-12-23T04:00:32.399Z,1.40
2023-12-23T04:03:38.240Z,1.20
2023-12-23T04:06:43.644Z,1.15
2023-12-23T04:09:47.182Z,1.10
2023-12-23T04:12:50.010Z,1.02
2023-12-23T04:15:52.701Z,2.83
2023-12-23T04:18:55.166Z,12.05
2023-12-23T04:21:58.424Z,19.88
2023-12-23T04:25:00.780Z,3.75
2023-12-23T04:28:03.602Z,7.20
2023-12-23T04:31:06.848Z,16.38
2023-12-23T04:34:09.557Z,2.00
2023-12-23T04:37:12.712Z,1.65
2023-12-23T04:40:17.128Z,1.20
2023-12-23T04:43:20.072Z,2.67
2023-12-23T04:46:23.858Z,3.58
2023-12-23T04:49:26.732Z,2.67
2023-12-23T04:52:29.236Z,1.88
2023-12-23T04:55:33.769Z,3.08
2023-12-23T04:58:36.636Z,1.98
2023-12-23T05:01:39.395Z,2.00
2023-12-23T05:04:44.147Z,2.13
2023-12-23T05:07:48.859Z,1.58
2023-12-23T05:10:51.913Z,1.65
2023-12-23T05:13:54.302Z,3.10
2023-12-23T05:16:56.708Z,2.30
2023-12-23T05:19:59.136Z,3.50
2023-12-23T05:23:01.563Z,2.63
2023-12-23T05:26:04.154Z,2.28
2023-12-23T05:29:06.833Z,2.97
2023-12-23T05:32:10.721Z,1.43
2023-12-23T05:35:13.280Z,2.00
2023-12-23T05:38:15.701Z,2.13
2023-12-23T05:41:18.094Z,3.13
2023-12-23T05:44:20.848Z,2.17
2023-12-23T05:47:23.464Z,2.35
2023-12-23T05:50:25.909Z,3.17
2023-12-23T05:53:28.682Z,2.00
2023-12-23T05:56:31.358Z,1.52
2023-12-23T05:59:34.081Z,1.80
2023-12-23T06:02:36.536Z,2.15
2023-12-23T06:05:39.647Z,3.70
2023-12-23T06:08:42.076Z,2.67
2023-12-23T06:11:44.819Z,3.30
2023-12-23T06:14:47.415Z,2.38
2023-12-23T06:17:52.490Z,2.75
2023-12-23T06:20:55.039Z,3.30
2023-12-23T06:23:57.367Z,2.55
2023-12-23T06:26:59.730Z,2.22
2023-12-23T06:30:02.360Z,3.00
2023-12-23T06:33:05.834Z,2.22
2023-12-23T06:36:09.613Z,1.95
2023-12-23T06:42:14.384Z,1.88
2023-12-23T06:45:17.767Z,1.65
2023-12-23T06:48:20.637Z,1.90
2023-12-23T06:51:23.190Z,1.63
2023-12-23T06:54:25.703Z,1.30
2023-12-23T06:57:27.978Z,1.33
2023-12-23T07:00:30.389Z,1.55
2023-12-23T07:03:32.772Z,2.03
2023-12-23T07:06:36.152Z,1.55
2023-12-23T07:09:38.662Z,2.38
2023-12-23T07:12:41.655Z,1.50
2023-12-23T07:15:44.627Z,2.53
2023-12-23T07:18:47.913Z,1.60
2023-12-23T07:21:54.403Z,1.40
2023-12-23T07:24:57.357Z,1.50
2023-12-23T07:27:59.815Z,1.37
2023-12-23T07:31:02.234Z,1.45
2023-12-23T07:34:04.769Z,1.90
2023-12-23T07:37:07.190Z,2.13
2023-12-23T07:40:10.201Z,2.08
2023-12-23T07:43:12.563Z,1.90
2023-12-23T07:46:14.944Z,2.10
2023-12-23T07:49:17.507Z,1.73
2023-12-23T07:52:19.873Z,1.40
2023-12-23T07:55:22.337Z,1.30
2023-12-23T07:58:24.783Z,2.00
2023-12-23T08:01:27.265Z,1.58
2023-12-23T08:04:29.593Z,1.35
2023-12-23T08:07:31.987Z,1.02
2023-12-23T08:10:34.571Z,1.83
2023-12-23T08:13:37.814Z,2.33
2023-12-23T08:16:40.289Z,1.70
2023-12-23T08:19:42.696Z,2.20
2023-12-23T08:22:45.174Z,2.00
2023-12-23T08:25:48.516Z,1.70
2023-12-23T08:28:50.914Z,1.90
2023-12-23T08:31:53.405Z,1.45
2023-12-23T08:34:55.897Z,1.42
2023-12-23T08:37:58.507Z,1.60
2023-12-23T08:41:00.912Z,1.60
2023-12-23T08:44:06.404Z,1.88
2023-12-23T08:47:08.897Z,1.60
2023-12-23T08:50:12.092Z,2.15
2023-12-23T08:53:15.694Z,1.38
2023-12-23T08:56:18.470Z,1.67
2023-12-23T08:59:21.185Z,1.83
2023-12-23T09:02:26.958Z,2.25
2023-12-23T09:05:30.291Z,1.67
2023-12-23T09:08:34.808Z,1.83
2023-12-23T09:11:46.134Z,2.70
2023-12-23T09:14:51.967Z,1.25
2023-12-23T09:17:54.711Z,1.98
2023-12-23T09:20:57.484Z,1.30
2023-12-23T09:23:59.873Z,2.03
2023-12-23T09:27:02.656Z,2.25
2023-12-23T09:30:06.492Z,2.50
2023-12-23T09:33:09.044Z,2.13
2023-12-23T09:36:11.540Z,3.20
2023-12-23T09:39:14.591Z,1.85
2023-12-23T09:42:17.274Z,6.03
2023-12-23T09:45:20.565Z,2.25
2023-12-23T09:48:23.057Z,2.10
2023-12-23T09:51:28.722Z,2.38
2023-12-23T09:54:34.968Z,2.38
2023-12-23T09:57:37.497Z,2.50
2023-12-23T10:00:39.843Z,2.63
2023-12-23T10:03:42.302Z,4.05
2023-12-23T10:06:44.707Z,3.75
2023-12-23T10:09:53.478Z,4.10
2023-12-23T10:12:55.961Z,3.83
2023-12-23T10:15:58.354Z,2.20
2023-12-23T10:19:01.926Z,3.30
2023-12-23T10:22:05.430Z,6.30
2023-12-23T10:25:09.175Z,4.68
2023-12-23T10:28:12.033Z,2.63
2023-12-23T10:31:14.983Z,4.20
2023-12-23T10:34:19.574Z,4.50
2023-12-23T10:37:24.112Z,3.88
2023-12-23T10:40:29.530Z,3.45
2023-12-23T10:43:32.239Z,3.85
2023-12-23T10:46:34.934Z,3.17
2023-12-23T10:49:37.889Z,3.65
2023-12-23T10:52:42.323Z,4.50
2023-12-23T10:55:48.687Z,6.38
2023-12-23T10:58:52.531Z,3.17
2023-12-23T11:04:58.606Z,9.45
2023-12-23T11:08:14.144Z,7.38
2023-12-23T11:11:20.242Z,3.58
2023-12-23T11:14:22.936Z,1.60
2023-12-23T11:17:26.211Z,2.55
2023-12-23T11:20:34.801Z,1.58
2023-12-23T11:23:37.368Z,2.10
2023-12-23T11:26:40.917Z,2.30
2023-12-23T11:29:43.614Z,5.70
2023-12-23T11:32:46.349Z,2.50
2023-12-23T11:35:53.074Z,1.60
2023-12-23T11:38:55.832Z,2.83
2023-12-23T11:41:58.828Z,2.00
2023-12-23T11:45:01.477Z,2.20
2023-12-23T11:48:04.283Z,2.47
2023-12-23T11:51:10.179Z,4.28
2023-12-23T11:54:13.840Z,3.40
2023-12-23T11:57:16.404Z,3.38
2023-12-23T12:00:20.308Z,2.75
2023-12-23T12:03:26.715Z,3.42
2023-12-23T12:06:29.715Z,2.60
2023-12-23T12:09:32.844Z,2.53
2023-12-23T12:12:35.432Z,3.03
2023-12-23T12:15:37.896Z,2.30
2023-12-23T12:18:45.371Z,2.38
2023-12-23T12:21:48.375Z,4.70
2023-12-23T12:24:53.954Z,3.10
2023-12-23T12:27:58.916Z,2.80
2023-12-23T12:31:10.415Z,2.85
2023-12-23T12:34:19.254Z,2.22
2023-12-23T12:37:21.878Z,2.67
2023-12-23T12:40:24.979Z,2.20
2023-12-23T12:43:33.100Z,2.63
2023-12-23T12:46:37.569Z,1.95
2023-12-23T12:49:59.392Z,2.50
2023-12-23T12:53:08.058Z,2.78
2023-12-23T12:56:15.672Z,2.08
2023-12-23T12:59:19.424Z,2.22
2023-12-23T13:02:24.345Z,2.42
2023-12-23T13:05:26.952Z,2.25
2023-12-23T13:08:29.645Z,1.88
2023-12-23T13:11:33.082Z,2.15
2023-12-23T13:14:36.963Z,1.85
2023-12-23T13:17:39.701Z,2.10
2023-12-23T13:20:42.459Z,1.83
2023-12-23T13:23:44.970Z,1.77
2023-12-23T13:26:47.535Z,1.98
2023-12-23T13:29:50.208Z,1.92
2023-12-23T13:32:52.994Z,1.65
2023-12-23T13:35:55.575Z,2.05
2023-12-23T13:38:58.087Z,1.67
2023-12-23T13:42:01.131Z,2.13
2023-12-23T13:45:06.053Z,2.00
2023-12-23T13:48:08.892Z,1.77
2023-12-23T13:51:11.740Z,1.80
2023-12-23T13:54:14.165Z,2.08
2023-12-23T13:57:17.037Z,2.22
2023-12-23T14:00:19.777Z,2.05
2023-12-23T14:03:22.248Z,2.78
2023-12-23T14:06:24.734Z,2.58
2023-12-23T14:09:27.190Z,2.10
2023-12-23T14:12:29.702Z,1.88
2023-12-23T14:15:32.414Z,3.67
2023-12-23T14:18:35.687Z,1.85
2023-12-23T14:21:38.682Z,1.88
2023-12-23T14:24:41.573Z,2.50
2023-12-23T14:27:47.057Z,4.50
2023-12-23T14:30:49.644Z,3.10
2023-12-23T14:33:57.030Z,2.45
2023-12-23T14:36:59.411Z,2.88
2023-12-23T14:40:01.838Z,4.15
2023-12-23T14:43:04.289Z,3.63
2023-12-23T14:46:06.676Z,3.03
2023-12-23T14:49:10.524Z,3.00
2023-12-23T14:52:13.189Z,2.65
2023-12-23T14:55:16.653Z,3.30
2023-12-23T14:58:19.021Z,4.30
2023-12-23T15:01:21.776Z,3.63
2023-12-23T15:04:24.695Z,3.08
2023-12-23T15:07:29.016Z,2.70
2023-12-23T15:10:31.751Z,3.85
2023-12-23T15:13:39.146Z,3.63
2023-12-23T15:16:42.969Z,3.30
2023-12-23T15:19:45.445Z,3.53
2023-12-23T15:22:47.980Z,3.60
2023-12-23T15:25:50.849Z,3.45
2023-12-23T15:28:54.199Z,4.28
2023-12-23T15:31:56.661Z,6.80
2023-12-23T15:34:59.277Z,4.18
2023-12-23T15:38:01.835Z,4.00
2023-12-23T15:41:04.452Z,4.50
2023-12-23T15:44:07.231Z,9.52
2023-12-23T15:47:10.774Z,6.30
2023-12-23T15:50:14.399Z,6.80
2023-12-23T15:53:20.768Z,6.70
2023-12-23T15:56:23.967Z,8.00
2023-12-23T15:59:26.711Z,6.80
2023-12-23T16:02:29.316Z,6.45
2023-12-23T16:05:31.983Z,6.20
2023-12-23T16:08:34.681Z,10.13
2023-12-23T16:11:38.873Z,8.25
2023-12-23T16:14:43.248Z,5.70
2023-12-23T16:17:46.300Z,8.10
2023-12-23T16:20:53.374Z,4.28
2023-12-23T16:23:55.997Z,5.20
2023-12-23T16:26:58.495Z,4.78
2023-12-23T16:30:02.745Z,4.45
2023-12-23T16:33:05.333Z,4.35
2023-12-23T16:36:15.433Z,5.10
2023-12-23T16:39:21.187Z,4.45
2023-12-23T16:42:23.555Z,5.00
2023-12-23T16:45:26.062Z,4.43
2023-12-23T16:48:28.495Z,5.43
2023-12-23T16:51:31.235Z,4.85
2023-12-23T16:54:33.602Z,5.63
2023-12-23T16:57:37.694Z,6.53
2023-12-23T17:00:40.278Z,5.15
2023-12-23T17:03:44.001Z,5.97
2023-12-23T17:06:46.673Z,6.15
2023-12-23T17:09:49.294Z,5.82
2023-12-23T17:12:51.910Z,4.88
2023-12-23T17:15:54.608Z,4.85
2023-12-23T17:18:57.466Z,4.68
2023-12-23T17:22:00.390Z,4.70
2023-12-23T17:25:02.927Z,5.43
2023-12-23T17:28:10.278Z,6.15
2023-12-23T17:31:14.584Z,7.25
2023-12-23T17:34:17.184Z,7.15
2023-12-23T17:37:19.622Z,5.45
2023-12-23T17:40:21.959Z,6.97
2023-12-23T17:43:24.262Z,6.70
2023-12-23T17:46:28.524Z,6.53
2023-12-23T17:49:30.927Z,6.53
2023-12-23T17:52:33.587Z,5.35
2023-12-23T17:55:36.340Z,6.18
2023-12-23T17:58:42.030Z,6.03
2023-12-23T18:01:45.664Z,5.97
2023-12-23T18:04:48.797Z,6.30
2023-12-23T18:07:54.653Z,7.07
2023-12-23T18:10:57.684Z,5.75
2023-12-23T18:14:00.710Z,6.47
2023-12-23T18:17:04.693Z,5.07
2023-12-23T18:23:13.725Z,7.63
2023-12-23T18:26:16.287Z,6.57
2023-12-23T18:29:19.009Z,6.65
2023-12-23T18:32:21.812Z,7.25
2023-12-23T18:35:24.529Z,5.33
2023-12-23T18:38:28.862Z,7.00
2023-12-23T18:41:31.420Z,6.03
2023-12-23T18:44:34.050Z,6.07
2023-12-23T18:47:37.113Z,6.40
2023-12-23T18:50:40.060Z,4.80
2023-12-23T18:53:47.762Z,5.35
2023-12-23T18:56:50.508Z,4.47
2023-12-23T18:59:52.969Z,6.30
2023-12-23T19:02:56.062Z,5.60
2023-12-23T19:05:59.889Z,5.40
2023-12-23T19:09:02.457Z,4.75
2023-12-23T19:12:05.357Z,4.43
2023-12-23T19:15:08.371Z,5.07
2023-12-23T19:18:11.113Z,6.70
2023-12-23T19:21:13.886Z,6.07
2023-12-23T19:24:17.287Z,5.50
2023-12-23T19:27:19.814Z,4.60
2023-12-23T19:30:22.261Z,4.78
2023-12-23T19:33:28.110Z,4.35
2023-12-23T19:36:31.608Z,4.40
2023-12-23T19:39:34.021Z,3.88
2023-12-23T19:42:36.332Z,4.78
2023-12-23T19:45:38.969Z,4.57
2023-12-23T19:48:43.102Z,5.00
2023-12-23T19:51:45.571Z,4.75
2023-12-23T19:54:47.906Z,4.35
2023-12-23T19:57:50.335Z,4.30
2023-12-23T20:00:52.986Z,4.28
2023-12-23T20:03:56.619Z,4.10
2023-12-23T20:06:59.114Z,4.10
2023-12-23T20:10:03.102Z,4.20
2023-12-23T20:13:07.064Z,4.00
2023-12-23T20:19:13.996Z,4.82
2023-12-23T20:22:16.561Z,4.72
2023-12-23T20:25:18.976Z,4.70
2023-12-23T20:28:21.473Z,5.07
2023-12-23T20:31:23.808Z,5.78
2023-12-23T20:34:29.804Z,4.90
2023-12-23T20:37:32.225Z,4.38
2023-12-23T20:40:34.690Z,5.20
2023-12-23T20:43:37.286Z,5.13
2023-12-23T20:46:41.897Z,5.30
2023-12-23T20:49:44.378Z,4.75
2023-12-23T20:52:46.958Z,4.80
2023-12-23T20:55:49.623Z,7.30
2023-12-23T20:58:56.651Z,6.38
2023-12-23T21:01:59.003Z,4.78
2023-12-23T21:05:01.853Z,4.82
2023-12-23T21:08:05.641Z,3.70
2023-12-23T21:11:08.160Z,4.55
2023-12-23T21:14:10.883Z,4.30
2023-12-23T21:17:13.767Z,3.80
2023-12-23T21:20:16.322Z,3.50
2023-12-23T21:23:18.885Z,3.60
2023-12-23T21:26:24.369Z,3.60
2023-12-23T21:29:27.362Z,3.95
2023-12-23T21:32:30.014Z,3.88
2023-12-23T21:35:34.640Z,4.00
2023-12-23T21:38:38.002Z,4.65
2023-12-23T21:41:40.679Z,3.38
2023-12-23T21:44:43.038Z,3.58
2023-12-23T21:47:49.109Z,3.53
2023-12-23T21:50:55.605Z,3.53
2023-12-23T21:53:58.287Z,3.42
2023-12-23T21:57:00.940Z,3.50
2023-12-23T22:00:04.461Z,3.25
2023-12-23T22:03:06.940Z,2.95
2023-12-23T22:06:09.559Z,3.47
2023-12-23T22:09:15.015Z,3.03
2023-12-23T22:12:17.365Z,3.70
2023-12-23T22:15:20.238Z,3.22
2023-12-23T22:18:22.852Z,3.30
2023-12-23T22:21:25.637Z,2.45
2023-12-23T22:24:28.128Z,3.35
2023-12-23T22:27:30.982Z,3.47
2023-12-23T22:30:33.632Z,2.42
2023-12-23T22:33:36.603Z,3.60
2023-12-23T22:36:39.529Z,3.33
2023-12-23T22:39:48.749Z,2.92
2023-12-23T22:42:52.746Z,3.40
2023-12-23T22:45:58.036Z,2.75
2023-12-23T22:49:02.936Z,3.83
2023-12-23T22:52:05.605Z,7.78
2023-12-23T22:55:08.609Z,6.20
2023-12-23T22:58:12.446Z,3.50
2023-12-23T23:04:18.652Z,2.97
2023-12-23T23:07:21.294Z,4.25
2023-12-23T23:10:23.802Z,3.58
2023-12-23T23:13:26.358Z,3.05
2023-12-23T23:16:29.022Z,3.47
2023-12-23T23:19:32.359Z,2.67
2023-12-23T23:22:35.051Z,3.03
2023-12-23T23:25:37.365Z,3.50
2023-12-23T23:28:39.933Z,3.25
2023-12-23T23:31:43.071Z,2.85
2023-12-23T23:34:46.563Z,4.32
2023-12-23T23:37:49.353Z,4.35
2023-12-23T23:40:51.933Z,3.30
2023-12-23T23:43:54.524Z,3.70
2023-12-23T23:46:56.926Z,3.72
2023-12-23T23:50:00.093Z,3.28
2023-12-23T23:53:03.556Z,3.35
2023-12-23T23:56:06.546Z,2.33
2023-12-23T23:59:10.468Z,2.77
